sensor_id;sensor_type;location;lat;lon;timestamp;pressure;altitude;pressure_sealevel;temperature
6498;BMP280;3282;48.358;10.958;2022-08-16T00:00:15;95728.16;;;21.49
6498;BMP280;3282;48.358;10.958;2022-08-16T00:02:48;95729.03;;;21.46
6498;BMP280;3282;48.358;10.958;2022-08-16T00:05:18;95739.63;;;21.44
6498;BMP280;3282;48.358;10.958;2022-08-16T00:07:45;95739.28;;;21.42
6498;BMP280;3282;48.358;10.958;2022-08-16T00:10:14;95731.59;;;21.40
6498;BMP280;3282;48.358;10.958;2022-08-16T00:12:46;95738.25;;;21.39
6498;BMP280;3282;48.358;10.958;2022-08-16T00:15:19;95747.59;;;21.38
6498;BMP280;3282;48.358;10.958;2022-08-16T00:17:47;95745.00;;;21.34
6498;BMP280;3282;48.358;10.958;2022-08-16T00:20:22;95745.16;;;21.31
6498;BMP280;3282;48.358;10.958;2022-08-16T00:22:50;95744.81;;;21.29
6498;BMP280;3282;48.358;10.958;2022-08-16T00:25:19;95742.88;;;21.29
6498;BMP280;3282;48.358;10.958;2022-08-16T00:28:06;95746.06;;;21.28
6498;BMP280;3282;48.358;10.958;2022-08-16T00:30:33;95746.50;;;21.26
6498;BMP280;3282;48.358;10.958;2022-08-16T00:33:01;95738.28;;;21.17
6498;BMP280;3282;48.358;10.958;2022-08-16T00:35:31;95744.69;;;21.23
6498;BMP280;3282;48.358;10.958;2022-08-16T00:38:03;95745.09;;;21.21
6498;BMP280;3282;48.358;10.958;2022-08-16T00:40:52;95747.22;;;21.17
6498;BMP280;3282;48.358;10.958;2022-08-16T00:43:24;95747.22;;;21.17
6498;BMP280;3282;48.358;10.958;2022-08-16T00:49:06;95756.81;;;21.09
6498;BMP280;3282;48.358;10.958;2022-08-16T00:51:43;95752.09;;;21.00
6498;BMP280;3282;48.358;10.958;2022-08-16T00:54:10;95743.41;;;20.92
6498;BMP280;3282;48.358;10.958;2022-08-16T00:56:41;95736.28;;;20.86
6498;BMP280;3282;48.358;10.958;2022-08-16T00:59:24;95748.56;;;20.90
6498;BMP280;3282;48.358;10.958;2022-08-16T01:01:52;95749.88;;;20.86
6498;BMP280;3282;48.358;10.958;2022-08-16T01:04:22;95749.22;;;20.81
6498;BMP280;3282;48.358;10.958;2022-08-16T01:06:56;95747.09;;;20.76
6498;BMP280;3282;48.358;10.958;2022-08-16T01:09:31;95749.94;;;20.73
6498;BMP280;3282;48.358;10.958;2022-08-16T01:12:04;95758.22;;;20.69
6498;BMP280;3282;48.358;10.958;2022-08-16T01:14:38;95757.91;;;20.67
6498;BMP280;3282;48.358;10.958;2022-08-16T01:17:09;95749.84;;;20.63
6498;BMP280;3282;48.358;10.958;2022-08-16T01:19:41;95758.13;;;20.60
6498;BMP280;3282;48.358;10.958;2022-08-16T01:22:18;95758.38;;;20.52
6498;BMP280;3282;48.358;10.958;2022-08-16T01:25:11;95756.69;;;20.46
6498;BMP280;3282;48.358;10.958;2022-08-16T01:27:50;95745.28;;;20.38
6498;BMP280;3282;48.358;10.958;2022-08-16T01:30:21;95746.16;;;20.35
6498;BMP280;3282;48.358;10.958;2022-08-16T01:32:55;95748.53;;;20.33
6498;BMP280;3282;48.358;10.958;2022-08-16T01:35:44;95746.41;;;20.27
6498;BMP280;3282;48.358;10.958;2022-08-16T01:38:22;95750.78;;;20.25
6498;BMP280;3282;48.358;10.958;2022-08-16T01:41:00;95744.25;;;20.22
6498;BMP280;3282;48.358;10.958;2022-08-16T01:43:28;95745.47;;;20.21
6498;BMP280;3282;48.358;10.958;2022-08-16T01:46:00;95741.31;;;20.16
6498;BMP280;3282;48.358;10.958;2022-08-16T01:48:47;95733.31;;;20.13
6498;BMP280;3282;48.358;10.958;2022-08-16T01:51:16;95738.38;;;20.11
6498;BMP280;3282;48.358;10.958;2022-08-16T01:53:45;95729.19;;;20.08
6498;BMP280;3282;48.358;10.958;2022-08-16T01:56:26;95728.41;;;20.08
6498;BMP280;3282;48.358;10.958;2022-08-16T01:58:59;95721.59;;;20.03
6498;BMP280;3282;48.358;10.958;2022-08-16T02:01:27;95720.53;;;20.00
6498;BMP280;3282;48.358;10.958;2022-08-16T02:03:58;95720.28;;;19.95
6498;BMP280;3282;48.358;10.958;2022-08-16T02:06:38;95720.41;;;19.91
6498;BMP280;3282;48.358;10.958;2022-08-16T02:09:14;95716.94;;;19.90
6498;BMP280;3282;48.358;10.958;2022-08-16T02:11:46;95711.94;;;19.89
6498;BMP280;3282;48.358;10.958;2022-08-16T02:14:26;95704.91;;;19.79
6498;BMP280;3282;48.358;10.958;2022-08-16T02:16:57;95719.97;;;19.80
6498;BMP280;3282;48.358;10.958;2022-08-16T02:19:28;95722.47;;;19.74
6498;BMP280;3282;48.358;10.958;2022-08-16T02:22:20;95727.38;;;19.66
6498;BMP280;3282;48.358;10.958;2022-08-16T02:25:12;95725.97;;;19.61
6498;BMP280;3282;48.358;10.958;2022-08-16T02:27:42;95729.97;;;19.57
6498;BMP280;3282;48.358;10.958;2022-08-16T02:30:15;95731.63;;;19.54
6498;BMP280;3282;48.358;10.958;2022-08-16T02:33:03;95727.81;;;19.52
6498;BMP280;3282;48.358;10.958;2022-08-16T02:35:32;95722.06;;;19.49
6498;BMP280;3282;48.358;10.958;2022-08-16T02:37:59;95725.66;;;19.46
6498;BMP280;3282;48.358;10.958;2022-08-16T02:40:34;95723.78;;;19.43
6498;BMP280;3282;48.358;10.958;2022-08-16T02:43:01;95729.63;;;19.42
6498;BMP280;3282;48.358;10.958;2022-08-16T02:45:31;95728.34;;;19.33
6498;BMP280;3282;48.358;10.958;2022-08-16T02:47:58;95718.88;;;19.25
6498;BMP280;3282;48.358;10.958;2022-08-16T02:50:45;95730.50;;;19.26
6498;BMP280;3282;48.358;10.958;2022-08-16T02:53:21;95721.72;;;19.21
6498;BMP280;3282;48.358;10.958;2022-08-16T02:55:50;95720.50;;;19.22
6498;BMP280;3282;48.358;10.958;2022-08-16T02:58:19;95725.63;;;19.20
6498;BMP280;3282;48.358;10.958;2022-08-16T03:00:52;95727.13;;;19.21
6498;BMP280;3282;48.358;10.958;2022-08-16T03:03:25;95729.84;;;19.21
6498;BMP280;3282;48.358;10.958;2022-08-16T03:05:52;95733.75;;;19.20
6498;BMP280;3282;48.358;10.958;2022-08-16T03:08:22;95727.22;;;19.18
6498;BMP280;3282;48.358;10.958;2022-08-16T03:11:09;95721.91;;;19.14
6498;BMP280;3282;48.358;10.958;2022-08-16T03:13:50;95716.94;;;19.13
6498;BMP280;3282;48.358;10.958;2022-08-16T03:16:22;95724.72;;;19.10
6498;BMP280;3282;48.358;10.958;2022-08-16T03:19:05;95712.91;;;19.04
6498;BMP280;3282;48.358;10.958;2022-08-16T03:21:33;95716.06;;;19.03
6498;BMP280;3282;48.358;10.958;2022-08-16T03:24:06;95712.34;;;18.96
6498;BMP280;3282;48.358;10.958;2022-08-16T03:26:57;95721.34;;;18.93
6498;BMP280;3282;48.358;10.958;2022-08-16T03:29:30;95719.47;;;18.90
6498;BMP280;3282;48.358;10.958;2022-08-16T03:32:01;95718.38;;;18.88
6498;BMP280;3282;48.358;10.958;2022-08-16T03:34:30;95718.03;;;18.86
6498;BMP280;3282;48.358;10.958;2022-08-16T03:36:59;95705.13;;;18.77
6498;BMP280;3282;48.358;10.958;2022-08-16T03:39:26;95715.00;;;18.83
6498;BMP280;3282;48.358;10.958;2022-08-16T03:41:53;95719.25;;;18.84
6498;BMP280;3282;48.358;10.958;2022-08-16T03:44:27;95701.88;;;18.82
6498;BMP280;3282;48.358;10.958;2022-08-16T03:47:14;95721.94;;;18.84
6498;BMP280;3282;48.358;10.958;2022-08-16T03:49:46;95712.72;;;18.82
6498;BMP280;3282;48.358;10.958;2022-08-16T03:52:22;95711.31;;;18.77
6498;BMP280;3282;48.358;10.958;2022-08-16T03:54:57;95710.66;;;18.73
6498;BMP280;3282;48.358;10.958;2022-08-16T03:57:27;95720.72;;;18.73
6498;BMP280;3282;48.358;10.958;2022-08-16T04:00:08;95713.88;;;18.68
6498;BMP280;3282;48.358;10.958;2022-08-16T04:03:03;95709.28;;;18.65
6498;BMP280;3282;48.358;10.958;2022-08-16T04:05:40;95715.16;;;18.63
6498;BMP280;3282;48.358;10.958;2022-08-16T04:08:11;95712.69;;;18.69
6498;BMP280;3282;48.358;10.958;2022-08-16T04:10:53;95719.19;;;18.71
6498;BMP280;3282;48.358;10.958;2022-08-16T04:13:24;95719.31;;;18.68
6498;BMP280;3282;48.358;10.958;2022-08-16T04:16:11;95726.66;;;18.67
6498;BMP280;3282;48.358;10.958;2022-08-16T04:18:55;95719.41;;;18.64
6498;BMP280;3282;48.358;10.958;2022-08-16T04:21:34;95724.13;;;18.60
6498;BMP280;3282;48.358;10.958;2022-08-16T04:24:02;95723.91;;;18.54
6498;BMP280;3282;48.358;10.958;2022-08-16T04:26:34;95721.94;;;18.55
6498;BMP280;3282;48.358;10.958;2022-08-16T04:29:02;95723.91;;;18.54
6498;BMP280;3282;48.358;10.958;2022-08-16T04:31:48;95732.03;;;18.54
6498;BMP280;3282;48.358;10.958;2022-08-16T04:34:29;95735.25;;;18.49
6498;BMP280;3282;48.358;10.958;2022-08-16T04:36:57;95731.44;;;18.47
6498;BMP280;3282;48.358;10.958;2022-08-16T04:39:30;95739.97;;;18.45
6498;BMP280;3282;48.358;10.958;2022-08-16T04:42:03;95729.13;;;18.45
6498;BMP280;3282;48.358;10.958;2022-08-16T04:44:37;95723.81;;;18.41
6498;BMP280;3282;48.358;10.958;2022-08-16T04:47:28;95736.03;;;18.50
6498;BMP280;3282;48.358;10.958;2022-08-16T04:50:08;95731.31;;;18.50
6498;BMP280;3282;48.358;10.958;2022-08-16T04:52:36;95748.34;;;18.51
6498;BMP280;3282;48.358;10.958;2022-08-16T04:55:11;95740.56;;;18.53
6498;BMP280;3282;48.358;10.958;2022-08-16T04:57:42;95742.00;;;18.57
6498;BMP280;3282;48.358;10.958;2022-08-16T05:00:17;95750.38;;;18.63
6498;BMP280;3282;48.358;10.958;2022-08-16T05:03:17;95751.72;;;18.71
6498;BMP280;3282;48.358;10.958;2022-08-16T05:05:47;95747.28;;;18.78
6498;BMP280;3282;48.358;10.958;2022-08-16T05:08:31;95756.84;;;19.12
6498;BMP280;3282;48.358;10.958;2022-08-16T05:11:07;95758.13;;;19.50
6498;BMP280;3282;48.358;10.958;2022-08-16T05:13:36;95738.44;;;19.85
6498;BMP280;3282;48.358;10.958;2022-08-16T05:16:18;95761.53;;;20.51
6498;BMP280;3282;48.358;10.958;2022-08-16T05:18:53;95749.69;;;21.02
6498;BMP280;3282;48.358;10.958;2022-08-16T05:21:23;95754.78;;;21.54
6498;BMP280;3282;48.358;10.958;2022-08-16T05:24:06;95746.59;;;22.04
6498;BMP280;3282;48.358;10.958;2022-08-16T05:26:35;95754.03;;;22.51
6498;BMP280;3282;48.358;10.958;2022-08-16T05:29:09;95752.44;;;22.96
6498;BMP280;3282;48.358;10.958;2022-08-16T05:31:53;95761.41;;;23.40
6498;BMP280;3282;48.358;10.958;2022-08-16T05:34:20;95750.81;;;23.76
6498;BMP280;3282;48.358;10.958;2022-08-16T05:36:49;95761.00;;;24.15
6498;BMP280;3282;48.358;10.958;2022-08-16T05:39:18;95762.44;;;24.65
6498;BMP280;3282;48.358;10.958;2022-08-16T05:41:46;95767.78;;;25.04
6498;BMP280;3282;48.358;10.958;2022-08-16T05:44:15;95754.09;;;25.34
6498;BMP280;3282;48.358;10.958;2022-08-16T05:46:53;95764.97;;;25.64
6498;BMP280;3282;48.358;10.958;2022-08-16T05:49:22;95769.44;;;26.03
6498;BMP280;3282;48.358;10.958;2022-08-16T05:51:54;95768.53;;;26.12
6498;BMP280;3282;48.358;10.958;2022-08-16T05:54:23;95771.91;;;26.27
6498;BMP280;3282;48.358;10.958;2022-08-16T05:56:55;95770.75;;;26.61
6498;BMP280;3282;48.358;10.958;2022-08-16T05:59:24;95771.56;;;26.99
6498;BMP280;3282;48.358;10.958;2022-08-16T06:01:53;95777.50;;;27.24
6498;BMP280;3282;48.358;10.958;2022-08-16T06:04:26;95774.31;;;27.37
6498;BMP280;3282;48.358;10.958;2022-08-16T06:07:05;95777.72;;;27.58
6498;BMP280;3282;48.358;10.958;2022-08-16T06:09:54;95780.94;;;27.62
6498;BMP280;3282;48.358;10.958;2022-08-16T06:12:34;95780.56;;;27.81
6498;BMP280;3282;48.358;10.958;2022-08-16T06:15:08;95775.84;;;27.99
6498;BMP280;3282;48.358;10.958;2022-08-16T06:17:39;95789.94;;;28.24
6498;BMP280;3282;48.358;10.958;2022-08-16T06:20:15;95787.22;;;28.35
6498;BMP280;3282;48.358;10.958;2022-08-16T06:22:51;95788.25;;;28.72
6498;BMP280;3282;48.358;10.958;2022-08-16T06:25:42;95779.00;;;29.03
6498;BMP280;3282;48.358;10.958;2022-08-16T06:28:10;95780.50;;;29.27
6498;BMP280;3282;48.358;10.958;2022-08-16T06:30:56;95777.13;;;29.46
6498;BMP280;3282;48.358;10.958;2022-08-16T06:33:23;95776.59;;;29.65
6498;BMP280;3282;48.358;10.958;2022-08-16T06:35:52;95775.25;;;29.83
6498;BMP280;3282;48.358;10.958;2022-08-16T06:38:25;95771.00;;;29.87
6498;BMP280;3282;48.358;10.958;2022-08-16T06:41:06;95772.44;;;30.00
6498;BMP280;3282;48.358;10.958;2022-08-16T06:43:41;95773.19;;;29.95
6498;BMP280;3282;48.358;10.958;2022-08-16T06:46:40;95781.53;;;29.83
6498;BMP280;3282;48.358;10.958;2022-08-16T06:49:13;95767.22;;;29.91
6498;BMP280;3282;48.358;10.958;2022-08-16T06:51:40;95775.53;;;29.85
6498;BMP280;3282;48.358;10.958;2022-08-16T06:54:16;95777.28;;;29.82
6498;BMP280;3282;48.358;10.958;2022-08-16T06:56:42;95776.72;;;29.90
6498;BMP280;3282;48.358;10.958;2022-08-16T06:59:12;95772.97;;;29.93
6498;BMP280;3282;48.358;10.958;2022-08-16T07:01:47;95769.69;;;30.00
6498;BMP280;3282;48.358;10.958;2022-08-16T07:04:21;95770.91;;;29.99
6498;BMP280;3282;48.358;10.958;2022-08-16T07:07:08;95772.97;;;29.93
6498;BMP280;3282;48.358;10.958;2022-08-16T07:09:37;95774.47;;;29.94
6498;BMP280;3282;48.358;10.958;2022-08-16T07:12:04;95780.03;;;29.82
6498;BMP280;3282;48.358;10.958;2022-08-16T07:14:34;95791.50;;;29.92
6498;BMP280;3282;48.358;10.958;2022-08-16T07:17:03;95785.72;;;29.96
6498;BMP280;3282;48.358;10.958;2022-08-16T07:19:41;95786.69;;;30.04
6498;BMP280;3282;48.358;10.958;2022-08-16T07:22:38;95784.41;;;30.08
6498;BMP280;3282;48.358;10.958;2022-08-16T07:25:21;95772.59;;;30.13
6498;BMP280;3282;48.358;10.958;2022-08-16T07:27:49;95783.31;;;30.23
6498;BMP280;3282;48.358;10.958;2022-08-16T07:30:19;95773.63;;;30.10
6498;BMP280;3282;48.358;10.958;2022-08-16T07:33:08;95777.72;;;30.34
6498;BMP280;3282;48.358;10.958;2022-08-16T07:35:41;95777.00;;;30.28
6498;BMP280;3282;48.358;10.958;2022-08-16T07:38:15;95771.44;;;30.39
6498;BMP280;3282;48.358;10.958;2022-08-16T07:40:53;95770.72;;;30.33
6498;BMP280;3282;48.358;10.958;2022-08-16T07:43:37;95771.59;;;30.53
6498;BMP280;3282;48.358;10.958;2022-08-16T07:46:07;95767.78;;;30.56
6498;BMP280;3282;48.358;10.958;2022-08-16T07:48:55;95776.91;;;30.76
6498;BMP280;3282;48.358;10.958;2022-08-16T07:51:32;95776.78;;;30.93
6498;BMP280;3282;48.358;10.958;2022-08-16T07:54:06;95776.66;;;31.04
6498;BMP280;3282;48.358;10.958;2022-08-16T07:56:38;95781.19;;;31.07
6498;BMP280;3282;48.358;10.958;2022-08-16T07:59:05;95776.59;;;31.10
6498;BMP280;3282;48.358;10.958;2022-08-16T08:01:35;95789.44;;;31.32
6498;BMP280;3282;48.358;10.958;2022-08-16T08:04:04;95785.31;;;31.64
6498;BMP280;3282;48.358;10.958;2022-08-16T08:06:36;95791.81;;;31.85
6498;BMP280;3282;48.358;10.958;2022-08-16T08:09:09;95791.44;;;32.14
6498;BMP280;3282;48.358;10.958;2022-08-16T08:11:38;95785.84;;;32.33
6498;BMP280;3282;48.358;10.958;2022-08-16T08:14:07;95792.34;;;32.36
6498;BMP280;3282;48.358;10.958;2022-08-16T08:16:54;95795.91;;;32.50
6498;BMP280;3282;48.358;10.958;2022-08-16T08:19:28;95794.47;;;32.62
6498;BMP280;3282;48.358;10.958;2022-08-16T08:21:54;95799.13;;;32.54
6498;BMP280;3282;48.358;10.958;2022-08-16T08:24:40;95795.28;;;32.43
6498;BMP280;3282;48.358;10.958;2022-08-16T08:27:10;95772.28;;;32.49
6498;BMP280;3282;48.358;10.958;2022-08-16T08:29:37;95787.66;;;32.63
6498;BMP280;3282;48.358;10.958;2022-08-16T08:32:09;95797.72;;;32.80
6498;BMP280;3282;48.358;10.958;2022-08-16T08:34:59;95802.31;;;32.91
6498;BMP280;3282;48.358;10.958;2022-08-16T08:37:32;95799.44;;;33.10
6498;BMP280;3282;48.358;10.958;2022-08-16T08:40:20;95801.34;;;33.15
6498;BMP280;3282;48.358;10.958;2022-08-16T08:42:56;95795.28;;;33.43
6498;BMP280;3282;48.358;10.958;2022-08-16T08:45:37;95794.84;;;33.39
6498;BMP280;3282;48.358;10.958;2022-08-16T08:48:15;95793.69;;;33.48
6498;BMP280;3282;48.358;10.958;2022-08-16T08:51:07;95791.09;;;33.64
6498;BMP280;3282;48.358;10.958;2022-08-16T08:54:03;95797.69;;;33.61
6498;BMP280;3282;48.358;10.958;2022-08-16T08:56:36;95792.16;;;33.61
6498;BMP280;3282;48.358;10.958;2022-08-16T08:59:22;95796.81;;;33.66
6498;BMP280;3282;48.358;10.958;2022-08-16T09:01:52;95789.75;;;33.78
6498;BMP280;3282;48.358;10.958;2022-08-16T09:04:25;95791.75;;;33.29
6498;BMP280;3282;48.358;10.958;2022-08-16T09:06:54;95798.09;;;33.65
6498;BMP280;3282;48.358;10.958;2022-08-16T09:09:24;95785.63;;;33.71
6498;BMP280;3282;48.358;10.958;2022-08-16T09:11:59;95787.84;;;33.73
6498;BMP280;3282;48.358;10.958;2022-08-16T09:14:48;95795.47;;;33.94
6498;BMP280;3282;48.358;10.958;2022-08-16T09:17:22;95796.03;;;33.92
6498;BMP280;3282;48.358;10.958;2022-08-16T09:20:11;95784.00;;;34.11
6498;BMP280;3282;48.358;10.958;2022-08-16T09:22:42;95776.53;;;34.06
6498;BMP280;3282;48.358;10.958;2022-08-16T09:25:17;95782.56;;;33.96
6498;BMP280;3282;48.358;10.958;2022-08-16T09:27:51;95784.53;;;34.09
6498;BMP280;3282;48.358;10.958;2022-08-16T09:30:30;95788.91;;;34.26
6498;BMP280;3282;48.358;10.958;2022-08-16T09:33:09;95788.66;;;34.37
6498;BMP280;3282;48.358;10.958;2022-08-16T09:35:36;95783.03;;;34.08
6498;BMP280;3282;48.358;10.958;2022-08-16T09:38:05;95783.59;;;33.72
6498;BMP280;3282;48.358;10.958;2022-08-16T09:40:34;95782.53;;;33.75
6498;BMP280;3282;48.358;10.958;2022-08-16T09:43:09;95781.56;;;34.07
6498;BMP280;3282;48.358;10.958;2022-08-16T09:45:56;95786.16;;;34.26
6498;BMP280;3282;48.358;10.958;2022-08-16T09:48:23;95779.88;;;34.47
6498;BMP280;3282;48.358;10.958;2022-08-16T09:51:11;95770.78;;;34.67
6498;BMP280;3282;48.358;10.958;2022-08-16T09:53:41;95774.75;;;34.80
6498;BMP280;3282;48.358;10.958;2022-08-16T09:56:22;95771.41;;;34.81
6498;BMP280;3282;48.358;10.958;2022-08-16T09:58:52;95771.66;;;34.62
6498;BMP280;3282;48.358;10.958;2022-08-16T10:01:34;95772.31;;;34.55
6498;BMP280;3282;48.358;10.958;2022-08-16T10:04:02;95761.31;;;34.70
6498;BMP280;3282;48.358;10.958;2022-08-16T10:06:31;95766.28;;;34.64
6498;BMP280;3282;48.358;10.958;2022-08-16T10:09:13;95762.09;;;34.71
6498;BMP280;3282;48.358;10.958;2022-08-16T10:11:41;95765.31;;;34.83
6498;BMP280;3282;48.358;10.958;2022-08-16T10:14:43;95760.81;;;35.09
6498;BMP280;3282;48.358;10.958;2022-08-16T10:17:11;95768.09;;;35.20
6498;BMP280;3282;48.358;10.958;2022-08-16T10:19:38;95763.72;;;35.40
6498;BMP280;3282;48.358;10.958;2022-08-16T10:22:05;95763.72;;;35.40
6498;BMP280;3282;48.358;10.958;2022-08-16T10:24:32;95764.09;;;35.36
6498;BMP280;3282;48.358;10.958;2022-08-16T10:26:59;95764.06;;;35.28
6498;BMP280;3282;48.358;10.958;2022-08-16T10:29:46;95760.00;;;34.93
6498;BMP280;3282;48.358;10.958;2022-08-16T10:32:28;95760.53;;;34.62
6498;BMP280;3282;48.358;10.958;2022-08-16T10:34:57;95756.34;;;34.48
6498;BMP280;3282;48.358;10.958;2022-08-16T10:37:24;95759.81;;;34.40
6498;BMP280;3282;48.358;10.958;2022-08-16T10:40:06;95769.50;;;34.47
6498;BMP280;3282;48.358;10.958;2022-08-16T10:42:53;95748.63;;;34.54
6498;BMP280;3282;48.358;10.958;2022-08-16T10:45:20;95763.16;;;34.68
6498;BMP280;3282;48.358;10.958;2022-08-16T10:47:48;95763.84;;;34.90
6498;BMP280;3282;48.358;10.958;2022-08-16T10:50:28;95755.00;;;34.99
6498;BMP280;3282;48.358;10.958;2022-08-16T10:52:55;95760.88;;;35.24
6498;BMP280;3282;48.358;10.958;2022-08-16T10:55:25;95751.81;;;35.31
6498;BMP280;3282;48.358;10.958;2022-08-16T10:58:13;95757.63;;;35.41
6498;BMP280;3282;48.358;10.958;2022-08-16T11:00:43;95753.19;;;35.54
6498;BMP280;3282;48.358;10.958;2022-08-16T11:03:12;95745.81;;;35.64
6498;BMP280;3282;48.358;10.958;2022-08-16T11:06:00;95748.06;;;35.81
6498;BMP280;3282;48.358;10.958;2022-08-16T11:08:33;95755.16;;;35.98
6498;BMP280;3282;48.358;10.958;2022-08-16T11:11:03;95750.88;;;35.97
6498;BMP280;3282;48.358;10.958;2022-08-16T11:13:38;95758.28;;;36.02
6498;BMP280;3282;48.358;10.958;2022-08-16T11:16:24;95759.59;;;36.09
6498;BMP280;3282;48.358;10.958;2022-08-16T11:19:13;95766.50;;;36.15
6498;BMP280;3282;48.358;10.958;2022-08-16T11:21:42;95765.00;;;36.14
6498;BMP280;3282;48.358;10.958;2022-08-16T11:24:32;95756.78;;;35.93
6498;BMP280;3282;48.358;10.958;2022-08-16T11:27:14;95756.25;;;35.87
6498;BMP280;3282;48.358;10.958;2022-08-16T11:29:48;95748.44;;;36.01
6498;BMP280;3282;48.358;10.958;2022-08-16T11:32:17;95764.03;;;36.04
6498;BMP280;3282;48.358;10.958;2022-08-16T11:34:53;95757.53;;;35.94
6498;BMP280;3282;48.358;10.958;2022-08-16T11:37:48;95757.56;;;36.09
6498;BMP280;3282;48.358;10.958;2022-08-16T11:40:48;95751.06;;;35.99
6498;BMP280;3282;48.358;10.958;2022-08-16T11:43:21;95757.00;;;36.18
6498;BMP280;3282;48.358;10.958;2022-08-16T11:45:54;95746.97;;;36.23
6498;BMP280;3282;48.358;10.958;2022-08-16T11:48:27;95759.97;;;36.36
6498;BMP280;3282;48.358;10.958;2022-08-16T11:50:55;95755.91;;;36.45
6498;BMP280;3282;48.358;10.958;2022-08-16T11:53:23;95745.84;;;36.50
6498;BMP280;3282;48.358;10.958;2022-08-16T11:55:50;95748.63;;;36.57
6498;BMP280;3282;48.358;10.958;2022-08-16T11:58:22;95738.75;;;36.64
6498;BMP280;3282;48.358;10.958;2022-08-16T12:00:50;95754.72;;;36.63
6498;BMP280;3282;48.358;10.958;2022-08-16T12:03:21;95744.50;;;36.66
6498;BMP280;3282;48.358;10.958;2022-08-16T12:06:05;95745.41;;;36.76
6498;BMP280;3282;48.358;10.958;2022-08-16T12:08:49;95750.22;;;36.91
6498;BMP280;3282;48.358;10.958;2022-08-16T12:11:18;95750.75;;;36.98
6498;BMP280;3282;48.358;10.958;2022-08-16T12:13:47;95751.59;;;36.52
6498;BMP280;3282;48.358;10.958;2022-08-16T12:16:15;95753.66;;;36.43
6498;BMP280;3282;48.358;10.958;2022-08-16T12:18:46;95749.19;;;36.56
6498;BMP280;3282;48.358;10.958;2022-08-16T12:21:19;95750.31;;;36.29
6498;BMP280;3282;48.358;10.958;2022-08-16T12:23:47;95745.13;;;35.95
6498;BMP280;3282;48.358;10.958;2022-08-16T12:26:15;95742.84;;;35.70
6498;BMP280;3282;48.358;10.958;2022-08-16T12:28:42;95743.03;;;35.72
6498;BMP280;3282;48.358;10.958;2022-08-16T12:31:20;95741.38;;;35.69
6498;BMP280;3282;48.358;10.958;2022-08-16T12:33:48;95739.34;;;35.17
6498;BMP280;3282;48.358;10.958;2022-08-16T12:36:20;95743.53;;;34.44
6498;BMP280;3282;48.358;10.958;2022-08-16T12:38:46;95743.38;;;34.00
6498;BMP280;3282;48.358;10.958;2022-08-16T12:41:15;95740.19;;;33.61
6498;BMP280;3282;48.358;10.958;2022-08-16T12:43:52;95738.69;;;33.25
6498;BMP280;3282;48.358;10.958;2022-08-16T12:46:26;95737.06;;;32.90
6498;BMP280;3282;48.358;10.958;2022-08-16T12:48:53;95736.94;;;32.55
6498;BMP280;3282;48.358;10.958;2022-08-16T12:51:39;95730.34;;;32.58
6498;BMP280;3282;48.358;10.958;2022-08-16T12:54:25;95723.66;;;33.07
6498;BMP280;3282;48.358;10.958;2022-08-16T12:56:52;95736.25;;;33.56
6498;BMP280;3282;48.358;10.958;2022-08-16T12:59:21;95712.47;;;33.82
6498;BMP280;3282;48.358;10.958;2022-08-16T13:01:49;95727.59;;;34.16
6498;BMP280;3282;48.358;10.958;2022-08-16T13:04:23;95724.53;;;34.06
6498;BMP280;3282;48.358;10.958;2022-08-16T13:06:51;95722.78;;;34.17
6498;BMP280;3282;48.358;10.958;2022-08-16T13:09:19;95714.19;;;34.28
6498;BMP280;3282;48.358;10.958;2022-08-16T13:12:05;95707.84;;;34.49
6498;BMP280;3282;48.358;10.958;2022-08-16T13:14:39;95712.19;;;34.15
6498;BMP280;3282;48.358;10.958;2022-08-16T13:17:09;95721.84;;;34.14
6498;BMP280;3282;48.358;10.958;2022-08-16T13:19:47;95715.25;;;34.25
6498;BMP280;3282;48.358;10.958;2022-08-16T13:22:36;95716.56;;;34.53
6498;BMP280;3282;48.358;10.958;2022-08-16T13:25:07;95720.47;;;34.57
6498;BMP280;3282;48.358;10.958;2022-08-16T13:27:34;95715.56;;;34.71
6498;BMP280;3282;48.358;10.958;2022-08-16T13:30:21;95716.97;;;34.57
6498;BMP280;3282;48.358;10.958;2022-08-16T13:33:08;95712.44;;;34.67
6498;BMP280;3282;48.358;10.958;2022-08-16T13:35:42;95713.00;;;34.02
6498;BMP280;3282;48.358;10.958;2022-08-16T13:38:12;95713.25;;;33.48
6498;BMP280;3282;48.358;10.958;2022-08-16T13:40:50;95696.75;;;33.02
6498;BMP280;3282;48.358;10.958;2022-08-16T13:43:17;95711.56;;;33.32
6498;BMP280;3282;48.358;10.958;2022-08-16T13:45:44;95711.34;;;33.29
6498;BMP280;3282;48.358;10.958;2022-08-16T13:48:16;95711.06;;;33.20
6498;BMP280;3282;48.358;10.958;2022-08-16T13:50:53;95701.81;;;33.52
6498;BMP280;3282;48.358;10.958;2022-08-16T13:53:23;95705.13;;;33.85
6498;BMP280;3282;48.358;10.958;2022-08-16T13:55:54;95696.34;;;34.02
6498;BMP280;3282;48.358;10.958;2022-08-16T13:58:25;95708.22;;;33.81
6498;BMP280;3282;48.358;10.958;2022-08-16T14:01:03;95701.41;;;33.48
6498;BMP280;3282;48.358;10.958;2022-08-16T14:03:37;95702.94;;;33.22
6498;BMP280;3282;48.358;10.958;2022-08-16T14:06:08;95696.88;;;33.10
6498;BMP280;3282;48.358;10.958;2022-08-16T14:08:38;95698.28;;;32.90
6498;BMP280;3282;48.358;10.958;2022-08-16T14:11:11;95698.69;;;32.80
6498;BMP280;3282;48.358;10.958;2022-08-16T14:13:42;95697.44;;;32.81
6498;BMP280;3282;48.358;10.958;2022-08-16T14:16:09;95695.63;;;32.97
6498;BMP280;3282;48.358;10.958;2022-08-16T14:18:51;95690.03;;;33.24
6498;BMP280;3282;48.358;10.958;2022-08-16T14:21:24;95702.56;;;33.52
6498;BMP280;3282;48.358;10.958;2022-08-16T14:24:00;95698.31;;;33.72
6498;BMP280;3282;48.358;10.958;2022-08-16T14:26:33;95693.06;;;33.82
6498;BMP280;3282;48.358;10.958;2022-08-16T14:28:59;95684.03;;;33.90
6498;BMP280;3282;48.358;10.958;2022-08-16T14:31:29;95689.28;;;33.72
6498;BMP280;3282;48.358;10.958;2022-08-16T14:33:58;95687.41;;;33.53
6498;BMP280;3282;48.358;10.958;2022-08-16T14:36:25;95685.84;;;33.45
6498;BMP280;3282;48.358;10.958;2022-08-16T14:38:57;95680.38;;;33.52
6498;BMP280;3282;48.358;10.958;2022-08-16T14:41:26;95680.31;;;33.66
6498;BMP280;3282;48.358;10.958;2022-08-16T14:43:54;95677.38;;;33.64
6498;BMP280;3282;48.358;10.958;2022-08-16T14:46:21;95677.06;;;33.40
6498;BMP280;3282;48.358;10.958;2022-08-16T14:48:47;95668.59;;;33.25
6498;BMP280;3282;48.358;10.958;2022-08-16T14:51:14;95663.84;;;32.98
6498;BMP280;3282;48.358;10.958;2022-08-16T14:53:43;95672.41;;;32.74
6498;BMP280;3282;48.358;10.958;2022-08-16T14:56:15;95676.44;;;32.72
6498;BMP280;3282;48.358;10.958;2022-08-16T14:59:01;95678.91;;;32.63
6498;BMP280;3282;48.358;10.958;2022-08-16T15:01:28;95672.59;;;32.76
6498;BMP280;3282;48.358;10.958;2022-08-16T15:04:15;95676.13;;;32.90
6498;BMP280;3282;48.358;10.958;2022-08-16T15:07:01;95664.16;;;32.95